sensor_id;sensor_type;location;lat;lon;timestamp;temperature;humidity
78902;DHT22;68290;44.716;37.756;2023-03-01T00:00:45;19.52;49.71
78902;DHT22;68290;44.716;37.756;2023-03-01T00:01:47;19.50;49.74
78902;DHT22;68290;44.716;37.756;2023-03-01T00:02:49;19.51;49.72
78902;DHT22;68290;44.716;37.756;2023-03-01T00:03:51;19.52;49.72
78902;DHT22;68290;44.716;37.756;2023-03-01T00:04:52;19.54;49.71
78902;DHT22;68290;44.716;37.756;2023-03-01T00:05:53;19.51;49.69
78902;DHT22;68290;44.716;37.756;2023-03-01T00:06:55;19.54;49.69
78902;DHT22;68290;44.716;37.756;2023-03-01T00:07:56;19.51;49.70
78902;DHT22;68290;44.716;37.756;2023-03-01T00:08:57;19.50;49.70
78902;DHT22;68290;44.716;37.756;2023-03-01T00:09:58;19.54;49.73
78902;DHT22;68290;44.716;37.756;2023-03-01T00:12:11;19.50;49.81
78902;DHT22;68290;44.716;37.756;2023-03-01T00:13:12;19.50;49.77
78902;DHT22;68290;44.716;37.756;2023-03-01T00:14:14;19.50;49.77
78902;DHT22;68290;44.716;37.756;2023-03-01T00:15:18;19.50;49.78
78902;DHT22;68290;44.716;37.756;2023-03-01T00:16:29;19.50;49.79
78902;DHT22;68290;44.716;37.756;2023-03-01T00:17:31;19.50;49.74
78902;DHT22;68290;44.716;37.756;2023-03-01T00:18:32;19.48;49.77
78902;DHT22;68290;44.716;37.756;2023-03-01T00:19:34;19.51;49.76
78902;DHT22;68290;44.716;37.756;2023-03-01T00:20:35;19.48;49.78
78902;DHT22;68290;44.716;37.756;2023-03-01T00:21:36;19.50;49.79
78902;DHT22;68290;44.716;37.756;2023-03-01T00:22:38;19.51;49.81
78902;DHT22;68290;44.716;37.756;2023-03-01T00:23:39;19.50;49.82
78902;DHT22;68290;44.716;37.756;2023-03-01T00:24:41;19.50;49.84
78902;DHT22;68290;44.716;37.756;2023-03-01T00:25:43;19.50;49.75
78902;DHT22;68290;44.716;37.756;2023-03-01T00:26:44;19.48;49.77
78902;DHT22;68290;44.716;37.756;2023-03-01T00:27:48;19.48;49.85
78902;DHT22;68290;44.716;37.756;2023-03-01T00:28:50;19.48;49.86
78902;DHT22;68290;44.716;37.756;2023-03-01T00:29:52;19.50;49.81
78902;DHT22;68290;44.716;37.756;2023-03-01T00:30:53;19.48;49.83
78902;DHT22;68290;44.716;37.756;2023-03-01T00:31:55;19.51;49.86
78902;DHT22;68290;44.716;37.756;2023-03-01T00:32:56;19.48;49.81
78902;DHT22;68290;44.716;37.756;2023-03-01T00:34:03;19.48;49.84
78902;DHT22;68290;44.716;37.756;2023-03-01T00:35:05;19.47;49.83
78902;DHT22;68290;44.716;37.756;2023-03-01T00:36:07;19.48;49.84
78902;DHT22;68290;44.716;37.756;2023-03-01T00:37:11;19.50;49.85
78902;DHT22;68290;44.716;37.756;2023-03-01T00:38:12;19.51;49.85
78902;DHT22;68290;44.716;37.756;2023-03-01T00:39:14;19.48;49.91
78902;DHT22;68290;44.716;37.756;2023-03-01T00:40:16;19.47;49.86
78902;DHT22;68290;44.716;37.756;2023-03-01T00:41:19;19.47;49.90
78902;DHT22;68290;44.716;37.756;2023-03-01T00:42:21;19.50;49.87
78902;DHT22;68290;44.716;37.756;2023-03-01T00:43:23;19.51;49.89
78902;DHT22;68290;44.716;37.756;2023-03-01T00:44:24;19.48;49.85
78902;DHT22;68290;44.716;37.756;2023-03-01T00:45:26;19.50;49.89
78902;DHT22;68290;44.716;37.756;2023-03-01T00:46:27;19.48;49.86
78902;DHT22;68290;44.716;37.756;2023-03-01T00:47:31;19.50;49.85
78902;DHT22;68290;44.716;37.756;2023-03-01T00:48:32;19.48;49.89
78902;DHT22;68290;44.716;37.756;2023-03-01T00:49:34;19.47;49.87
78902;DHT22;68290;44.716;37.756;2023-03-01T00:50:35;19.47;49.92
78902;DHT22;68290;44.716;37.756;2023-03-01T00:51:37;19.47;49.89
78902;DHT22;68290;44.716;37.756;2023-03-01T00:52:40;19.47;49.91
78902;DHT22;68290;44.716;37.756;2023-03-01T00:53:42;19.47;49.91
78902;DHT22;68290;44.716;37.756;2023-03-01T00:54:43;19.45;49.89
78902;DHT22;68290;44.716;37.756;2023-03-01T00:55:45;19.47;49.89
78902;DHT22;68290;44.716;37.756;2023-03-01T00:56:46;19.47;49.89
78902;DHT22;68290;44.716;37.756;2023-03-01T00:57:47;19.47;49.92
78902;DHT22;68290;44.716;37.756;2023-03-01T00:58:49;19.45;49.92
78902;DHT22;68290;44.716;37.756;2023-03-01T00:59:51;19.47;49.94
78902;DHT22;68290;44.716;37.756;2023-03-01T01:00:53;19.45;49.89
78902;DHT22;68290;44.716;37.756;2023-03-01T01:01:54;19.47;49.89
78902;DHT22;68290;44.716;37.756;2023-03-01T01:02:57;19.45;49.90
78902;DHT22;68290;44.716;37.756;2023-03-01T01:04:09;19.50;49.91
78902;DHT22;68290;44.716;37.756;2023-03-01T01:05:12;19.47;49.91
78902;DHT22;68290;44.716;37.756;2023-03-01T01:06:19;19.48;49.93
78902;DHT22;68290;44.716;37.756;2023-03-01T01:07:21;19.47;49.92
78902;DHT22;68290;44.716;37.756;2023-03-01T01:08:22;19.47;49.98
78902;DHT22;68290;44.716;37.756;2023-03-01T01:09:23;19.45;49.97
78902;DHT22;68290;44.716;37.756;2023-03-01T01:10:25;19.47;49.94
78902;DHT22;68290;44.716;37.756;2023-03-01T01:11:28;19.45;49.89
78902;DHT22;68290;44.716;37.756;2023-03-01T01:12:30;19.45;49.93
78902;DHT22;68290;44.716;37.756;2023-03-01T01:13:32;19.45;49.94
78902;DHT22;68290;44.716;37.756;2023-03-01T01:14:34;19.45;49.98
78902;DHT22;68290;44.716;37.756;2023-03-01T01:15:36;19.45;49.97
78902;DHT22;68290;44.716;37.756;2023-03-01T01:16:37;19.47;49.94
78902;DHT22;68290;44.716;37.756;2023-03-01T01:17:38;19.45;49.97
78902;DHT22;68290;44.716;37.756;2023-03-01T01:18:40;19.45;49.97
78902;DHT22;68290;44.716;37.756;2023-03-01T01:19:43;19.45;49.93
78902;DHT22;68290;44.716;37.756;2023-03-01T01:20:44;19.47;49.92
78902;DHT22;68290;44.716;37.756;2023-03-01T01:21:46;19.45;49.90
78902;DHT22;68290;44.716;37.756;2023-03-01T01:22:47;19.44;49.92
78902;DHT22;68290;44.716;37.756;2023-03-01T01:23:49;19.47;49.95
78902;DHT22;68290;44.716;37.756;2023-03-01T01:24:50;19.44;49.96
78902;DHT22;68290;44.716;37.756;2023-03-01T01:25:51;19.45;50.00
78902;DHT22;68290;44.716;37.756;2023-03-01T01:26:53;19.44;49.99
78902;DHT22;68290;44.716;37.756;2023-03-01T01:27:54;19.45;50.00
78902;DHT22;68290;44.716;37.756;2023-03-01T01:28:56;19.45;50.00
78902;DHT22;68290;44.716;37.756;2023-03-01T01:29:59;19.44;49.99
78902;DHT22;68290;44.716;37.756;2023-03-01T01:31:00;19.43;50.00
78902;DHT22;68290;44.716;37.756;2023-03-01T01:32:02;19.41;49.99
78902;DHT22;68290;44.716;37.756;2023-03-01T01:33:03;19.41;50.01
78902;DHT22;68290;44.716;37.756;2023-03-01T01:34:06;19.43;50.01
78902;DHT22;68290;44.716;37.756;2023-03-01T01:35:08;19.43;50.02
78902;DHT22;68290;44.716;37.756;2023-03-01T01:36:10;19.43;50.00
78902;DHT22;68290;44.716;37.756;2023-03-01T01:37:11;19.47;50.00
78902;DHT22;68290;44.716;37.756;2023-03-01T01:38:13;19.41;50.01
78902;DHT22;68290;44.716;37.756;2023-03-01T01:39:14;19.43;49.99
78902;DHT22;68290;44.716;37.756;2023-03-01T01:40:15;19.43;50.06
78902;DHT22;68290;44.716;37.756;2023-03-01T01:41:17;19.41;50.02
78902;DHT22;68290;44.716;37.756;2023-03-01T01:42:19;19.43;50.03
78902;DHT22;68290;44.716;37.756;2023-03-01T01:43:33;19.41;50.05
78902;DHT22;68290;44.716;37.756;2023-03-01T01:44:35;19.41;50.05
78902;DHT22;68290;44.716;37.756;2023-03-01T01:45:36;19.45;49.96
78902;DHT22;68290;44.716;37.756;2023-03-01T01:47:44;19.44;50.03
78902;DHT22;68290;44.716;37.756;2023-03-01T01:48:53;19.41;50.02
78902;DHT22;68290;44.716;37.756;2023-03-01T01:49:56;19.43;49.99
78902;DHT22;68290;44.716;37.756;2023-03-01T01:50:59;19.41;50.01
78902;DHT22;68290;44.716;37.756;2023-03-01T01:52:12;19.43;50.00
78902;DHT22;68290;44.716;37.756;2023-03-01T01:53:17;19.41;50.04
78902;DHT22;68290;44.716;37.756;2023-03-01T01:54:38;19.41;50.05
78902;DHT22;68290;44.716;37.756;2023-03-01T01:55:45;19.43;50.02
78902;DHT22;68290;44.716;37.756;2023-03-01T01:56:52;19.43;50.05
78902;DHT22;68290;44.716;37.756;2023-03-01T01:58:02;19.39;50.05
78902;DHT22;68290;44.716;37.756;2023-03-01T01:59:06;19.39;50.05
78902;DHT22;68290;44.716;37.756;2023-03-01T02:00:16;19.39;50.02
78902;DHT22;68290;44.716;37.756;2023-03-01T02:01:18;19.41;50.02
78902;DHT22;68290;44.716;37.756;2023-03-01T02:02:20;19.41;50.06
78902;DHT22;68290;44.716;37.756;2023-03-01T02:03:28;19.43;50.05
78902;DHT22;68290;44.716;37.756;2023-03-01T02:04:34;19.41;50.08
78902;DHT22;68290;44.716;37.756;2023-03-01T02:06:03;19.43;50.02
78902;DHT22;68290;44.716;37.756;2023-03-01T02:07:13;19.43;50.00
78902;DHT22;68290;44.716;37.756;2023-03-01T02:08:17;19.43;50.07
78902;DHT22;68290;44.716;37.756;2023-03-01T02:09:21;19.41;50.07
78902;DHT22;68290;44.716;37.756;2023-03-01T02:10:24;19.41;50.04
78902;DHT22;68290;44.716;37.756;2023-03-01T02:11:26;19.41;50.04
78902;DHT22;68290;44.716;37.756;2023-03-01T02:12:28;19.41;50.05
78902;DHT22;68290;44.716;37.756;2023-03-01T02:13:31;19.38;50.05
78902;DHT22;68290;44.716;37.756;2023-03-01T02:14:33;19.43;50.05
78902;DHT22;68290;44.716;37.756;2023-03-01T02:15:37;19.41;50.00
78902;DHT22;68290;44.716;37.756;2023-03-01T02:16:39;19.41;50.03
78902;DHT22;68290;44.716;37.756;2023-03-01T02:17:41;19.38;50.00
78902;DHT22;68290;44.716;37.756;2023-03-01T02:18:43;19.41;50.02
78902;DHT22;68290;44.716;37.756;2023-03-01T02:22:27;19.39;50.03
78902;DHT22;68290;44.716;37.756;2023-03-01T02:23:29;19.39;50.02
78902;DHT22;68290;44.716;37.756;2023-03-01T02:24:59;19.39;50.00
78902;DHT22;68290;44.716;37.756;2023-03-01T02:27:15;19.41;49.96
78902;DHT22;68290;44.716;37.756;2023-03-01T02:28:36;19.37;50.04
78902;DHT22;68290;44.716;37.756;2023-03-01T02:29:39;19.37;50.01
78902;DHT22;68290;44.716;37.756;2023-03-01T02:30:43;19.39;50.00
78902;DHT22;68290;44.716;37.756;2023-03-01T02:32:04;19.38;50.03
78902;DHT22;68290;44.716;37.756;2023-03-01T02:33:06;19.38;50.05
78902;DHT22;68290;44.716;37.756;2023-03-01T02:34:16;19.37;50.03
78902;DHT22;68290;44.716;37.756;2023-03-01T02:35:19;19.39;50.00
78902;DHT22;68290;44.716;37.756;2023-03-01T02:36:24;19.38;50.02
78902;DHT22;68290;44.716;37.756;2023-03-01T02:37:26;19.39;50.02
78902;DHT22;68290;44.716;37.756;2023-03-01T02:38:29;19.37;50.01
78902;DHT22;68290;44.716;37.756;2023-03-01T02:39:36;19.39;50.05
78902;DHT22;68290;44.716;37.756;2023-03-01T02:40:43;19.38;50.05
78902;DHT22;68290;44.716;37.756;2023-03-01T02:41:50;19.38;50.04
78902;DHT22;68290;44.716;37.756;2023-03-01T02:42:55;19.37;50.05
78902;DHT22;68290;44.716;37.756;2023-03-01T02:43:57;19.38;50.06
78902;DHT22;68290;44.716;37.756;2023-03-01T02:44:58;19.37;50.04
78902;DHT22;68290;44.716;37.756;2023-03-01T02:46:25;19.34;50.03
78902;DHT22;68290;44.716;37.756;2023-03-01T02:47:25;19.38;50.02
78902;DHT22;68290;44.716;37.756;2023-03-01T02:48:26;19.37;50.05
78902;DHT22;68290;44.716;37.756;2023-03-01T02:49:31;19.34;50.02
78902;DHT22;68290;44.716;37.756;2023-03-01T02:51:11;19.35;50.05
78902;DHT22;68290;44.716;37.756;2023-03-01T02:53:53;19.35;50.04
78902;DHT22;68290;44.716;37.756;2023-03-01T02:56:05;19.37;50.03
78902;DHT22;68290;44.716;37.756;2023-03-01T02:57:08;19.35;50.00
78902;DHT22;68290;44.716;37.756;2023-03-01T02:58:09;19.38;50.03
78902;DHT22;68290;44.716;37.756;2023-03-01T02:59:11;19.37;50.04
78902;DHT22;68290;44.716;37.756;2023-03-01T03:00:17;19.35;50.06
78902;DHT22;68290;44.716;37.756;2023-03-01T03:01:22;19.35;50.03
78902;DHT22;68290;44.716;37.756;2023-03-01T03:02:26;19.34;50.02
78902;DHT22;68290;44.716;37.756;2023-03-01T03:03:41;19.37;50.01
78902;DHT22;68290;44.716;37.756;2023-03-01T03:04:42;19.34;50.01
78902;DHT22;68290;44.716;37.756;2023-03-01T03:05:44;19.34;50.00
78902;DHT22;68290;44.716;37.756;2023-03-01T03:06:47;19.34;50.01
78902;DHT22;68290;44.716;37.756;2023-03-01T03:07:49;19.34;50.03
78902;DHT22;68290;44.716;37.756;2023-03-01T03:08:51;19.34;50.03
78902;DHT22;68290;44.716;37.756;2023-03-01T03:09:52;19.35;50.04
78902;DHT22;68290;44.716;37.756;2023-03-01T03:10:53;19.32;49.99
78902;DHT22;68290;44.716;37.756;2023-03-01T03:11:55;19.34;49.98
78902;DHT22;68290;44.716;37.756;2023-03-01T03:12:59;19.31;50.00
78902;DHT22;68290;44.716;37.756;2023-03-01T03:14:00;19.31;49.98
78902;DHT22;68290;44.716;37.756;2023-03-01T03:15:04;19.32;49.98
78902;DHT22;68290;44.716;37.756;2023-03-01T03:16:09;19.31;50.06
78902;DHT22;68290;44.716;37.756;2023-03-01T03:17:11;19.31;50.00
78902;DHT22;68290;44.716;37.756;2023-03-01T03:18:14;19.32;50.03
78902;DHT22;68290;44.716;37.756;2023-03-01T03:19:18;19.31;50.01
78902;DHT22;68290;44.716;37.756;2023-03-01T03:20:22;19.32;50.00
78902;DHT22;68290;44.716;37.756;2023-03-01T03:21:24;19.31;50.06
78902;DHT22;68290;44.716;37.756;2023-03-01T03:22:25;19.30;50.01
78902;DHT22;68290;44.716;37.756;2023-03-01T03:23:29;19.34;50.00
78902;DHT22;68290;44.716;37.756;2023-03-01T03:24:31;19.32;49.98
78902;DHT22;68290;44.716;37.756;2023-03-01T03:25:38;19.30;49.99
78902;DHT22;68290;44.716;37.756;2023-03-01T03:26:40;19.31;50.01
78902;DHT22;68290;44.716;37.756;2023-03-01T03:27:43;19.31;49.97
78902;DHT22;68290;44.716;37.756;2023-03-01T03:28:45;19.31;49.96
78902;DHT22;68290;44.716;37.756;2023-03-01T03:29:47;19.32;50.01
78902;DHT22;68290;44.716;37.756;2023-03-01T03:30:48;19.30;49.96
78902;DHT22;68290;44.716;37.756;2023-03-01T03:31:50;19.31;49.98
78902;DHT22;68290;44.716;37.756;2023-03-01T03:32:52;19.31;49.95
78902;DHT22;68290;44.716;37.756;2023-03-01T03:33:54;19.32;49.95
78902;DHT22;68290;44.716;37.756;2023-03-01T03:34:55;19.32;50.00
78902;DHT22;68290;44.716;37.756;2023-03-01T03:35:56;19.32;50.00
78902;DHT22;68290;44.716;37.756;2023-03-01T03:36:58;19.32;50.01
78902;DHT22;68290;44.716;37.756;2023-03-01T03:38:04;19.30;50.03
78902;DHT22;68290;44.716;37.756;2023-03-01T03:39:07;19.28;50.06
78902;DHT22;68290;44.716;37.756;2023-03-01T03:40:09;19.30;50.06
78902;DHT22;68290;44.716;37.756;2023-03-01T03:41:16;19.30;50.15
78902;DHT22;68290;44.716;37.756;2023-03-01T03:42:17;19.30;50.11
78902;DHT22;68290;44.716;37.756;2023-03-01T03:43:22;19.28;50.13
78902;DHT22;68290;44.716;37.756;2023-03-01T03:44:23;19.30;50.11
78902;DHT22;68290;44.716;37.756;2023-03-01T03:45:25;19.28;50.14
78902;DHT22;68290;44.716;37.756;2023-03-01T03:46:26;19.30;50.16
78902;DHT22;68290;44.716;37.756;2023-03-01T03:47:28;19.28;50.15
78902;DHT22;68290;44.716;37.756;2023-03-01T03:48:29;19.30;50.12
78902;DHT22;68290;44.716;37.756;2023-03-01T03:49:30;19.28;50.20
78902;DHT22;68290;44.716;37.756;2023-03-01T03:50:32;19.30;50.21
78902;DHT22;68290;44.716;37.756;2023-03-01T03:51:33;19.31;50.16
78902;DHT22;68290;44.716;37.756;2023-03-01T03:52:35;19.31;50.22
78902;DHT22;68290;44.716;37.756;2023-03-01T03:53:36;19.32;50.21
78902;DHT22;68290;44.716;37.756;2023-03-01T03:54:37;19.32;50.09
78902;DHT22;68290;44.716;37.756;2023-03-01T03:55:39;19.30;49.99
78902;DHT22;68290;44.716;37.756;2023-03-01T03:56:40;19.28;49.89
78902;DHT22;68290;44.716;37.756;2023-03-01T03:57:42;19.26;49.76
78902;DHT22;68290;44.716;37.756;2023-03-01T03:58:43;19.24;49.65
78902;DHT22;68290;44.716;37.756;2023-03-01T03:59:44;19.24;49.57
78902;DHT22;68290;44.716;37.756;2023-03-01T04:00:48;19.23;49.54
78902;DHT22;68290;44.716;37.756;2023-03-01T04:01:49;19.23;49.62
78902;DHT22;68290;44.716;37.756;2023-03-01T04:02:51;19.23;50.19
78902;DHT22;68290;44.716;37.756;2023-03-01T04:03:52;19.24;50.15
78902;DHT22;68290;44.716;37.756;2023-03-01T04:04:55;19.24;50.18
78902;DHT22;68290;44.716;37.756;2023-03-01T04:06:00;19.27;50.12
78902;DHT22;68290;44.716;37.756;2023-03-01T04:07:01;19.27;50.23
78902;DHT22;68290;44.716;37.756;2023-03-01T04:08:03;19.28;50.08
78902;DHT22;68290;44.716;37.756;2023-03-01T04:09:04;19.28;50.09
78902;DHT22;68290;44.716;37.756;2023-03-01T04:10:09;19.28;50.28
78902;DHT22;68290;44.716;37.756;2023-03-01T04:11:11;19.27;50.48
78902;DHT22;68290;44.716;37.756;2023-03-01T04:12:27;19.31;50.21
78902;DHT22;68290;44.716;37.756;2023-03-01T04:13:28;19.30;50.09
78902;DHT22;68290;44.716;37.756;2023-03-01T04:14:30;19.30;50.11
78902;DHT22;68290;44.716;37.756;2023-03-01T04:15:32;19.30;50.04
78902;DHT22;68290;44.716;37.756;2023-03-01T04:16:33;19.27;50.12
78902;DHT22;68290;44.716;37.756;2023-03-01T04:17:34;19.28;50.16
78902;DHT22;68290;44.716;37.756;2023-03-01T04:18:36;19.24;50.25
78902;DHT22;68290;44.716;37.756;2023-03-01T04:19:37;19.24;50.32
78902;DHT22;68290;44.716;37.756;2023-03-01T04:20:38;19.26;50.09
78902;DHT22;68290;44.716;37.756;2023-03-01T04:21:40;19.26;50.13
78902;DHT22;68290;44.716;37.756;2023-03-01T04:22:42;19.26;50.36
78902;DHT22;68290;44.716;37.756;2023-03-01T04:23:43;19.26;50.37
78902;DHT22;68290;44.716;37.756;2023-03-01T04:24:45;19.26;50.38
78902;DHT22;68290;44.716;37.756;2023-03-01T04:25:52;19.27;50.45
78902;DHT22;68290;44.716;37.756;2023-03-01T04:26:57;19.28;50.36
78902;DHT22;68290;44.716;37.756;2023-03-01T04:27:59;19.27;50.28
78902;DHT22;68290;44.716;37.756;2023-03-01T04:29:00;19.28;50.30
78902;DHT22;68290;44.716;37.756;2023-03-01T04:30:03;19.27;50.21
78902;DHT22;68290;44.716;37.756;2023-03-01T04:31:07;19.27;50.21
78902;DHT22;68290;44.716;37.756;2023-03-01T04:32:14;19.27;50.17
78902;DHT22;68290;44.716;37.756;2023-03-01T04:33:17;19.26;50.18
78902;DHT22;68290;44.716;37.756;2023-03-01T04:34:19;19.24;50.12
78902;DHT22;68290;44.716;37.756;2023-03-01T04:35:20;19.26;50.14
78902;DHT22;68290;44.716;37.756;2023-03-01T04:36:24;19.26;50.14
78902;DHT22;68290;44.716;37.756;2023-03-01T04:37:25;19.24;50.07
78902;DHT22;68290;44.716;37.756;2023-03-01T04:38:27;19.23;50.05
78902;DHT22;68290;44.716;37.756;2023-03-01T04:39:28;19.24;50.12
78902;DHT22;68290;44.716;37.756;2023-03-01T04:40:29;19.24;50.08
78902;DHT22;68290;44.716;37.756;2023-03-01T04:41:31;19.21;50.10
78902;DHT22;68290;44.716;37.756;2023-03-01T04:42:32;19.23;50.01
78902;DHT22;68290;44.716;37.756;2023-03-01T04:43:34;19.23;50.05
78902;DHT22;68290;44.716;37.756;2023-03-01T04:44:35;19.23;50.03
78902;DHT22;68290;44.716;37.756;2023-03-01T04:45:36;19.23;50.01
78902;DHT22;68290;44.716;37.756;2023-03-01T04:46:38;19.23;49.96
78902;DHT22;68290;44.716;37.756;2023-03-01T04:47:40;19.21;49.92
78902;DHT22;68290;44.716;37.756;2023-03-01T04:48:44;19.20;49.96
78902;DHT22;68290;44.716;37.756;2023-03-01T04:49:46;19.19;49.98
78902;DHT22;68290;44.716;37.756;2023-03-01T04:50:47;19.20;49.97
78902;DHT22;68290;44.716;37.756;2023-03-01T04:51:48;19.20;49.92
78902;DHT22;68290;44.716;37.756;2023-03-01T04:52:51;19.19;49.88
78902;DHT22;68290;44.716;37.756;2023-03-01T04:53:52;19.20;49.90
78902;DHT22;68290;44.716;37.756;2023-03-01T04:54:53;19.19;49.88
78902;DHT22;68290;44.716;37.756;2023-03-01T04:55:55;19.17;49.90
78902;DHT22;68290;44.716;37.756;2023-03-01T04:56:57;19.16;49.85
78902;DHT22;68290;44.716;37.756;2023-03-01T04:57:58;19.17;49.80
78902;DHT22;68290;44.716;37.756;2023-03-01T04:59:00;19.16;49.80
78902;DHT22;68290;44.716;37.756;2023-03-01T05:00:02;19.13;49.85
78902;DHT22;68290;44.716;37.756;2023-03-01T05:01:21;19.13;49.80
78902;DHT22;68290;44.716;37.756;2023-03-01T05:02:22;19.14;49.80
78902;DHT22;68290;44.716;37.756;2023-03-01T05:03:24;19.16;49.86
78902;DHT22;68290;44.716;37.756;2023-03-01T05:04:25;19.14;49.74
78902;DHT22;68290;44.716;37.756;2023-03-01T05:05:30;19.13;49.73
78902;DHT22;68290;44.716;37.756;2023-03-01T05:06:32;19.14;49.74
78902;DHT22;68290;44.716;37.756;2023-03-01T05:07:33;19.13;49.73
78902;DHT22;68290;44.716;37.756;2023-03-01T05:08:35;19.10;49.68
78902;DHT22;68290;44.716;37.756;2023-03-01T05:09:38;19.14;49.67
78902;DHT22;68290;44.716;37.756;2023-03-01T05:10:39;19.13;49.66
78902;DHT22;68290;44.716;37.756;2023-03-01T05:11:41;19.11;49.68
78902;DHT22;68290;44.716;37.756;2023-03-01T05:12:43;19.11;49.61
78902;DHT22;68290;44.716;37.756;2023-03-01T05:13:44;19.11;49.60
78902;DHT22;68290;44.716;37.756;2023-03-01T05:14:46;19.10;49.60
78902;DHT22;68290;44.716;37.756;2023-03-01T05:15:53;19.10;49.61
78902;DHT22;68290;44.716;37.756;2023-03-01T05:16:55;19.09;49.56
78902;DHT22;68290;44.716;37.756;2023-03-01T05:17:59;19.07;49.61
78902;DHT22;68290;44.716;37.756;2023-03-01T05:19:01;19.11;49.56
78902;DHT22;68290;44.716;37.756;2023-03-01T05:20:12;19.07;49.51
78902;DHT22;68290;44.716;37.756;2023-03-01T05:21:14;19.11;49.51
78902;DHT22;68290;44.716;37.756;2023-03-01T05:22:18;19.09;49.52
78902;DHT22;68290;44.716;37.756;2023-03-01T05:23:20;19.09;49.50
78902;DHT22;68290;44.716;37.756;2023-03-01T05:24:21;19.10;49.44
78902;DHT22;68290;44.716;37.756;2023-03-01T05:25:23;19.07;49.49
78902;DHT22;68290;44.716;37.756;2023-03-01T05:26:24;19.09;49.49
78902;DHT22;68290;44.716;37.756;2023-03-01T05:27:29;19.10;49.44
78902;DHT22;68290;44.716;37.756;2023-03-01T05:28:32;19.10;49.40
78902;DHT22;68290;44.716;37.756;2023-03-01T05:29:33;19.07;49.34
78902;DHT22;68290;44.716;37.756;2023-03-01T05:30:36;19.09;49.37
78902;DHT22;68290;44.716;37.756;2023-03-01T05:31:37;19.07;49.38
78902;DHT22;68290;44.716;37.756;2023-03-01T05:32:44;19.07;49.38
78902;DHT22;68290;44.716;37.756;2023-03-01T05:33:47;19.09;49.34
78902;DHT22;68290;44.716;37.756;2023-03-01T05:34:49;19.09;49.28
78902;DHT22;68290;44.716;37.756;2023-03-01T05:35:53;19.06;49.32
78902;DHT22;68290;44.716;37.756;2023-03-01T05:36:55;19.07;49.27
78902;DHT22;68290;44.716;37.756;2023-03-01T05:37:56;19.07;49.26
78902;DHT22;68290;44.716;37.756;2023-03-01T05:38:58;19.09;49.31
78902;DHT22;68290;44.716;37.756;2023-03-01T05:39:59;19.04;49.28
78902;DHT22;68290;44.716;37.756;2023-03-01T05:41:01;19.06;49.23
78902;DHT22;68290;44.716;37.756;2023-03-01T05:42:02;19.04;49.24
78902;DHT22;68290;44.716;37.756;2023-03-01T05:43:04;19.04;49.21
78902;DHT22;68290;44.716;37.756;2023-03-01T05:44:06;19.06;49.20
78902;DHT22;68290;44.716;37.756;2023-03-01T05:45:09;19.03;49.29
78902;DHT22;68290;44.716;37.756;2023-03-01T05:46:10;19.06;49.15
78902;DHT22;68290;44.716;37.756;2023-03-01T05:47:14;19.03;49.14
78902;DHT22;68290;44.716;37.756;2023-03-01T05:48:15;19.04;49.13
78902;DHT22;68290;44.716;37.756;2023-03-01T05:49:18;19.06;49.18
78902;DHT22;68290;44.716;37.756;2023-03-01T05:50:22;19.03;49.20
78902;DHT22;68290;44.716;37.756;2023-03-01T05:51:27;19.03;49.15
78902;DHT22;68290;44.716;37.756;2023-03-01T05:52:28;19.04;49.13
78902;DHT22;68290;44.716;37.756;2023-03-01T05:53:29;19.03;49.11
78902;DHT22;68290;44.716;37.756;2023-03-01T05:54:31;19.04;49.06
78902;DHT22;68290;44.716;37.756;2023-03-01T05:55:34;19.03;49.14
78902;DHT22;68290;44.716;37.756;2023-03-01T05:56:36;19.04;49.14
78902;DHT22;68290;44.716;37.756;2023-03-01T05:57:38;19.04;49.14
78902;DHT22;68290;44.716;37.756;2023-03-01T05:58:39;19.02;49.15
78902;DHT22;68290;44.716;37.756;2023-03-01T05:59:41;19.03;49.09
78902;DHT22;68290;44.716;37.756;2023-03-01T06:00:43;19.04;49.09
78902;DHT22;68290;44.716;37.756;2023-03-01T06:01:45;19.02;49.09
78902;DHT22;68290;44.716;37.756;2023-03-01T06:02:46;19.00;49.07
78902;DHT22;68290;44.716;37.756;2023-03-01T06:03:48;19.04;49.04
78902;DHT22;68290;44.716;37.756;2023-03-01T06:04:49;19.03;49.10
78902;DHT22;68290;44.716;37.756;2023-03-01T06:05:56;19.03;49.09
78902;DHT22;68290;44.716;37.756;2023-03-01T06:06:57;19.00;49.06
78902;DHT22;68290;44.716;37.756;2023-03-01T06:08:00;19.02;49.07
78902;DHT22;68290;44.716;37.756;2023-03-01T06:09:01;19.02;49.06
78902;DHT22;68290;44.716;37.756;2023-03-01T06:10:04;19.00;49.04
78902;DHT22;68290;44.716;37.756;2023-03-01T06:11:06;19.00;49.04
78902;DHT22;68290;44.716;37.756;2023-03-01T06:12:08;19.00;49.04
78902;DHT22;68290;44.716;37.756;2023-03-01T06:13:09;18.99;49.02
78902;DHT22;68290;44.716;37.756;2023-03-01T06:14:11;18.99;49.06
78902;DHT22;68290;44.716;37.756;2023-03-01T06:15:16;19.00;49.02
78902;DHT22;68290;44.716;37.756;2023-03-01T06:16:18;18.99;49.00
78902;DHT22;68290;44.716;37.756;2023-03-01T06:17:19;18.99;48.97
78902;DHT22;68290;44.716;37.756;2023-03-01T06:18:21;19.00;49.00
78902;DHT22;68290;44.716;37.756;2023-03-01T06:19:22;19.00;48.97
78902;DHT22;68290;44.716;37.756;2023-03-01T06:20:25;19.00;48.99
78902;DHT22;68290;44.716;37.756;2023-03-01T06:21:27;18.99;49.00
78902;DHT22;68290;44.716;37.756;2023-03-01T06:22:28;18.99;48.92
78902;DHT22;68290;44.716;37.756;2023-03-01T06:23:30;18.99;48.94
78902;DHT22;68290;44.716;37.756;2023-03-01T06:24:31;18.99;48.86
78902;DHT22;68290;44.716;37.756;2023-03-01T06:25:33;18.99;48.95
78902;DHT22;68290;44.716;37.756;2023-03-01T06:26:34;18.98;48.92
78902;DHT22;68290;44.716;37.756;2023-03-01T06:27:36;18.99;48.91
78902;DHT22;68290;44.716;37.756;2023-03-01T06:28:37;18.99;48.90
78902;DHT22;68290;44.716;37.756;2023-03-01T06:29:38;18.98;48.86
78902;DHT22;68290;44.716;37.756;2023-03-01T06:30:39;18.98;48.84
78902;DHT22;68290;44.716;37.756;2023-03-01T06:31:41;18.99;48.89
78902;DHT22;68290;44.716;37.756;2023-03-01T06:32:42;18.99;48.85
78902;DHT22;68290;44.716;37.756;2023-03-01T06:33:44;18.99;48.85
78902;DHT22;68290;44.716;37.756;2023-03-01T06:34:45;18.96;48.88
78902;DHT22;68290;44.716;37.756;2023-03-01T06:35:46;18.99;48.83
78902;DHT22;68290;44.716;37.756;2023-03-01T06:36:48;18.95;48.87
78902;DHT22;68290;44.716;37.756;2023-03-01T06:37:49;18.98;48.84
78902;DHT22;68290;44.716;37.756;2023-03-01T06:38:50;18.96;48.85
78902;DHT22;68290;44.716;37.756;2023-03-01T06:39:52;18.96;48.85
78902;DHT22;68290;44.716;37.756;2023-03-01T06:40:54;18.96;48.85